Time;durP1;ratioP1;P1;durP2;ratioP2;P2;SDS_P1;SDS_P2;PMS_P1;PMS_P2;Temp;Humidity;BMP_temperature;BMP_pressure;BME280_temperature;BME280_humidity;BME280_pressure;Samples;Min_cycle;Max_cycle;Signal;HPM_P1;HPM_P2
2023/08/08 00:02:23;;;;;;;4.00;1.60;;;;;;;15.43;71.46;99352.86;131073;1253;107450;-78
2023/08/08 00:05:29;;;;;;;3.00;1.50;;;;;;;15.42;71.70;99353.05;131032;1250;107645;-78
2023/08/08 00:08:34;;;;;;;4.30;1.60;;;;;;;15.41;71.87;99355.38;131015;1254;107271;-78
2023/08/08 00:11:40;;;;;;;5.20;1.90;;;;;;;15.37;71.84;99354.39;131077;1254;107619;-78
2023/08/08 00:14:45;;;;;;;4.40;1.80;;;;;;;15.30;71.78;99355.74;131075;1254;107549;-78
2023/08/08 00:17:51;;;;;;;4.40;1.80;;;;;;;15.25;71.77;99355.83;131177;1251;107465;-78
2023/08/08 00:20:56;;;;;;;4.60;2.00;;;;;;;15.20;71.75;99365.00;131043;1253;107550;-78
2023/08/08 00:24:02;;;;;;;5.00;1.70;;;;;;;15.15;71.90;99369.29;131049;1250;106567;-80
2023/08/08 00:27:08;;;;;;;5.80;2.00;;;;;;;15.12;71.75;99376.60;131233;1253;105665;-80
2023/08/08 00:30:14;;;;;;;4.20;1.60;;;;;;;15.12;71.81;99376.60;131164;1250;107534;-79
2023/08/08 00:33:20;;;;;;;4.30;1.70;;;;;;;15.13;71.81;99381.98;131219;1254;106365;-79
2023/08/08 00:36:26;;;;;;;4.00;1.70;;;;;;;15.09;71.88;99384.54;131077;1254;107549;-78
2023/08/08 00:39:32;;;;;;;6.40;2.00;;;;;;;15.08;72.04;99386.52;131006;1254;107394;-79
2023/08/08 00:42:37;;;;;;;3.90;1.60;;;;;;;15.05;71.89;99384.04;131079;1253;107502;-80
2023/08/08 00:45:45;;;;;;;3.80;1.60;;;;;;;15.06;71.79;99388.84;130928;1255;107551;-79
2023/08/08 00:48:51;;;;;;;4.40;1.70;;;;;;;15.07;71.62;99391.61;130842;1251;190605;-79
2023/08/08 00:51:56;;;;;;;3.00;1.50;;;;;;;15.07;71.50;99387.20;130960;1253;107470;-79
2023/08/08 00:55:03;;;;;;;4.00;1.70;;;;;;;15.05;71.35;99384.91;131009;1251;107535;-79
2023/08/08 00:58:09;;;;;;;4.50;1.50;;;;;;;15.02;71.31;99387.14;131020;1253;107372;-79
2023/08/08 01:01:15;;;;;;;4.00;1.50;;;;;;;15.03;71.14;99392.20;131056;1253;107516;-79
2023/08/08 01:04:26;;;;;;;3.80;1.50;;;;;;;15.04;70.88;99394.07;131130;1253;107536;-79
2023/08/08 01:07:39;;;;;;;7.00;2.60;;;;;;;15.04;70.91;99393.95;131012;1253;107534;-80
2023/08/08 01:10:45;;;;;;;3.90;1.40;;;;;;;15.04;71.23;99400.81;130972;1258;106651;-79
2023/08/08 01:13:54;;;;;;;2.50;1.50;;;;;;;15.02;71.25;99405.69;131012;1253;107519;-79
2023/08/08 01:17:01;;;;;;;5.50;1.80;;;;;;;14.98;71.24;99412.02;131071;1250;107226;-79
2023/08/08 01:20:10;;;;;;;5.00;1.70;;;;;;;14.92;71.36;99412.60;131086;1253;107834;-79
2023/08/08 01:23:20;;;;;;;3.30;1.50;;;;;;;14.85;71.68;99415.23;131058;1253;107420;-79
2023/08/08 01:26:27;;;;;;;3.70;1.50;;;;;;;14.79;71.55;99416.23;130977;1251;107386;-78
2023/08/08 01:29:33;;;;;;;3.30;1.50;;;;;;;14.75;71.71;99423.77;131055;1253;107380;-78
2023/08/08 01:32:38;;;;;;;4.00;1.60;;;;;;;14.71;71.74;99424.98;131093;1251;107527;-78
2023/08/08 01:35:46;;;;;;;6.80;1.90;;;;;;;14.65;72.22;99427.02;130979;1263;107373;-79
2023/08/08 01:38:55;;;;;;;4.10;2.10;;;;;;;14.63;71.76;99430.14;131006;1253;105918;-79
2023/08/08 01:42:03;;;;;;;3.20;1.90;;;;;;;14.58;71.91;99429.00;131021;1251;107643;-78
2023/08/08 01:45:10;;;;;;;3.20;1.60;;;;;;;14.56;71.95;99433.52;131072;1255;107498;-78
2023/08/08 01:48:16;;;;;;;2.60;1.70;;;;;;;14.50;71.81;99432.68;131069;1253;107564;-78
2023/08/08 01:51:21;;;;;;;6.30;2.00;;;;;;;14.45;71.81;99438.11;131033;1254;107369;-78
2023/08/08 01:54:27;;;;;;;3.80;1.70;;;;;;;14.40;71.83;99437.42;131060;1251;107217;-78
2023/08/08 01:57:34;;;;;;;4.50;1.60;;;;;;;14.32;71.73;99438.61;131034;1253;108573;-78
2023/08/08 02:00:40;;;;;;;3.60;1.50;;;;;;;14.25;71.72;99444.97;131051;1253;108537;-78
2023/08/08 02:03:46;;;;;;;4.20;1.60;;;;;;;14.21;71.81;99448.65;131087;1253;108686;-78
2023/08/08 02:06:52;;;;;;;3.80;1.60;;;;;;;14.19;72.02;99450.54;130982;1253;108643;-78
2023/08/08 02:09:57;;;;;;;5.40;1.70;;;;;;;14.15;71.91;99449.00;130976;1251;108295;-78
2023/08/08 02:13:04;;;;;;;2.70;1.70;;;;;;;14.12;72.01;99448.67;131006;1251;106376;-78
2023/08/08 02:16:09;;;;;;;5.60;2.00;;;;;;;14.11;71.80;99458.83;131063;1254;107575;-80
2023/08/08 02:19:15;;;;;;;3.20;1.50;;;;;;;14.07;71.66;99461.27;131242;1250;107278;-81
2023/08/08 02:22:21;;;;;;;7.10;1.60;;;;;;;14.05;71.55;99464.44;131168;1250;107362;-78
2023/08/08 02:25:26;;;;;;;5.50;1.50;;;;;;;14.00;71.82;99464.13;131002;1250;107519;-78
2023/08/08 02:28:32;;;;;;;4.70;1.50;;;;;;;13.97;71.64;99464.88;130962;1254;106123;-81
2023/08/08 02:31:37;;;;;;;3.90;1.70;;;;;;;13.95;71.50;99467.45;131214;1250;107557;-81
2023/08/08 02:34:44;;;;;;;3.10;1.50;;;;;;;13.90;71.87;99471.80;131119;1253;107963;-80
2023/08/08 02:37:49;;;;;;;2.70;1.20;;;;;;;13.87;71.82;99479.15;131056;1251;107431;-79
2023/08/08 02:40:55;;;;;;;2.90;1.40;;;;;;;13.85;71.93;99477.65;131037;1253;107443;-80
2023/08/08 02:44:01;;;;;;;3.00;1.40;;;;;;;13.87;71.88;99481.80;131272;1250;107589;-79
2023/08/08 02:47:07;;;;;;;3.10;1.40;;;;;;;13.87;72.23;99480.14;131186;1253;107493;-78
2023/08/08 02:50:14;;;;;;;3.70;1.50;;;;;;;13.88;71.94;99485.89;131091;1263;107358;-77
2023/08/08 02:53:19;;;;;;;4.60;1.90;;;;;;;13.89;72.02;99492.04;131095;1256;107645;-77
2023/08/08 02:56:26;;;;;;;5.80;1.70;;;;;;;13.88;72.04;99497.45;131072;1253;108556;-76
2023/08/08 02:59:32;;;;;;;3.60;1.50;;;;;;;13.87;72.13;99501.88;131135;1253;107459;-76
2023/08/08 03:02:39;;;;;;;3.90;1.50;;;;;;;13.83;71.98;99505.06;131075;1253;108749;-77
2023/08/08 03:05:47;;;;;;;4.60;1.60;;;;;;;13.79;72.15;99507.41;131148;1251;107263;-77
2023/08/08 03:08:53;;;;;;;2.80;1.70;;;;;;;13.74;72.27;99512.01;131014;1253;107575;-77
2023/08/08 03:11:59;;;;;;;4.90;1.60;;;;;;;13.73;72.33;99514.71;131068;1250;107530;-77
2023/08/08 03:15:08;;;;;;;3.80;1.50;;;;;;;13.74;72.28;99516.66;131090;1254;107518;-76
2023/08/08 03:18:14;;;;;;;4.30;1.60;;;;;;;13.78;72.32;99514.64;131261;1253;107369;-76
2023/08/08 03:21:21;;;;;;;4.90;1.90;;;;;;;13.79;72.41;99519.14;131102;1253;107362;-76
2023/08/08 03:24:26;;;;;;;4.60;1.70;;;;;;;13.81;72.36;99524.28;131121;1253;107399;-75
2023/08/08 03:27:32;;;;;;;3.00;1.70;;;;;;;13.84;72.43;99525.71;131072;1253;106384;-75
2023/08/08 03:30:39;;;;;;;3.50;1.60;;;;;;;13.83;72.20;99526.89;131083;1253;107371;-76
2023/08/08 03:33:47;;;;;;;4.30;1.80;;;;;;;13.85;72.27;99529.55;131159;1253;107445;-75
2023/08/08 03:36:53;;;;;;;3.60;1.60;;;;;;;13.84;72.42;99533.92;130980;1250;107285;-76
2023/08/08 03:39:59;;;;;;;3.60;1.70;;;;;;;13.83;72.30;99536.21;131095;1250;109409;-75
2023/08/08 03:43:05;;;;;;;6.10;1.70;;;;;;;13.82;72.38;99538.77;130904;1256;107283;-75
2023/08/08 03:46:11;;;;;;;3.20;2.00;;;;;;;13.84;72.44;99541.43;131006;1250;107567;-77
2023/08/08 03:49:17;;;;;;;2.60;1.50;;;;;;;13.93;72.27;99544.55;131127;1254;106692;-77
2023/08/08 03:52:22;;;;;;;4.60;1.50;;;;;;;14.05;72.36;99540.58;131048;1257;107563;-76
2023/08/08 03:55:28;;;;;;;4.40;1.70;;;;;;;14.18;72.35;99540.94;131066;1253;107606;-75
2023/08/08 03:58:34;;;;;;;4.20;1.60;;;;;;;14.38;72.16;99545.89;130986;1261;107282;-76
2023/08/08 04:01:40;;;;;;;4.70;1.60;;;;;;;14.59;72.08;99548.10;130984;1250;107481;-75
2023/08/08 04:04:45;;;;;;;2.80;1.50;;;;;;;14.79;71.70;99548.91;131090;1255;107567;-75
2023/08/08 04:07:52;;;;;;;4.00;1.70;;;;;;;14.94;71.41;99551.30;131020;1250;107399;-77
2023/08/08 04:10:57;;;;;;;4.40;1.60;;;;;;;15.04;71.54;99560.27;131120;1253;108416;-75
2023/08/08 04:14:03;;;;;;;4.90;2.10;;;;;;;15.08;71.28;99562.57;131088;1253;106490;-75
2023/08/08 04:17:09;;;;;;;4.40;2.00;;;;;;;15.11;71.11;99560.06;131078;1251;107541;-75
2023/08/08 04:20:14;;;;;;;2.90;1.60;;;;;;;15.09;70.99;99566.34;131081;1251;107614;-75
2023/08/08 04:23:20;;;;;;;4.40;1.80;;;;;;;15.10;70.89;99575.02;131054;1253;107538;-75
2023/08/08 04:26:26;;;;;;;3.40;1.50;;;;;;;15.12;70.95;99574.20;131060;1250;107519;-75
2023/08/08 04:29:31;;;;;;;3.40;1.80;;;;;;;15.18;70.98;99578.08;131067;1253;107595;-75
2023/08/08 04:32:37;;;;;;;3.00;1.70;;;;;;;15.22;70.86;99583.44;131116;1254;107504;-75
2023/08/08 04:35:42;;;;;;;4.80;1.50;;;;;;;15.25;70.66;99595.81;131136;1253;107407;-75
2023/08/08 04:38:47;;;;;;;4.00;1.70;;;;;;;15.24;70.59;99599.86;131049;1251;107538;-75
2023/08/08 04:41:53;;;;;;;3.30;1.60;;;;;;;15.25;70.54;99599.50;131079;1251;107390;-75
2023/08/08 04:44:58;;;;;;;3.60;1.40;;;;;;;15.35;70.52;99599.79;131154;1254;107461;-76
2023/08/08 04:48:04;;;;;;;3.10;1.60;;;;;;;15.44;70.21;99598.08;131120;1250;107461;-75
2023/08/08 04:51:10;;;;;;;3.30;1.60;;;;;;;15.52;70.27;99602.73;130989;1256;105820;-76
2023/08/08 04:54:16;;;;;;;3.40;1.70;;;;;;;15.57;69.95;99613.48;131045;1253;105716;-76
2023/08/08 04:57:21;;;;;;;4.80;1.70;;;;;;;15.58;69.92;99622.38;131026;1253;107525;-76
2023/08/08 05:00:28;;;;;;;3.00;1.60;;;;;;;15.56;69.65;99622.83;130994;1254;107557;-76
2023/08/08 05:03:34;;;;;;;3.30;1.70;;;;;;;15.53;69.61;99634.52;131076;1255;106745;-75
2023/08/08 05:06:39;;;;;;;3.70;1.60;;;;;;;15.50;69.65;99639.35;131013;1253;107246;-76
2023/08/08 05:09:50;;;;;;;3.10;1.80;;;;;;;15.48;69.20;99641.20;131104;1253;107363;-77
2023/08/08 05:12:58;;;;;;;4.70;1.90;;;;;;;15.49;69.57;99645.25;131101;1256;107886;-76
2023/08/08 05:16:04;;;;;;;4.60;1.90;;;;;;;15.54;69.14;99641.23;131207;1250;107127;-76
2023/08/08 05:19:10;;;;;;;4.80;1.80;;;;;;;15.54;69.16;99643.45;131531;1250;106542;-78
2023/08/08 05:22:15;;;;;;;5.30;1.80;;;;;;;15.54;68.75;99644.27;131327;1253;107516;-76
2023/08/08 05:25:21;;;;;;;3.30;1.70;;;;;;;15.59;68.66;99650.39;131046;1253;107742;-76
2023/08/08 05:28:27;;;;;;;4.80;2.20;;;;;;;15.81;68.85;99657.77;131084;1250;107521;-76
2023/08/08 05:31:32;;;;;;;3.30;1.80;;;;;;;16.07;68.75;99659.64;131125;1253;107520;-78
2023/08/08 05:34:38;;;;;;;4.30;2.20;;;;;;;16.26;68.22;99659.21;131202;1253;107396;-77
2023/08/08 05:37:43;;;;;;;4.20;2.20;;;;;;;16.30;67.74;99664.43;131256;1253;108638;-76
2023/08/08 05:40:49;;;;;;;4.30;1.90;;;;;;;16.28;67.72;99669.44;131002;1253;107239;-75
2023/08/08 05:43:54;;;;;;;3.90;1.90;;;;;;;16.30;68.02;99674.28;131023;1250;107505;-75
2023/08/08 05:47:00;;;;;;;3.20;2.00;;;;;;;16.46;67.72;99672.54;131020;1254;107229;-76
2023/08/08 05:50:06;;;;;;;3.90;1.80;;;;;;;16.57;67.56;99674.54;131150;1250;107514;-76
2023/08/08 05:53:12;;;;;;;2.40;1.50;;;;;;;16.66;67.14;99675.02;131153;1253;106700;-76
2023/08/08 05:56:17;;;;;;;2.40;1.60;;;;;;;16.71;66.93;99678.10;131221;1253;107462;-75
2023/08/08 05:59:23;;;;;;;2.80;1.70;;;;;;;16.76;66.93;99689.20;131114;1256;107506;-76
2023/08/08 06:02:28;;;;;;;3.90;1.70;;;;;;;16.79;66.57;99691.40;131137;1253;107530;-75
2023/08/08 06:05:34;;;;;;;5.80;2.40;;;;;;;16.89;66.53;99686.26;131154;1253;107327;-77
2023/08/08 06:08:40;;;;;;;4.10;2.10;;;;;;;17.05;66.70;99687.94;131095;1253;107192;-76
2023/08/08 06:11:45;;;;;;;2.50;1.50;;;;;;;17.20;66.23;99688.20;131175;1253;107497;-75
2023/08/08 06:14:51;;;;;;;2.40;1.40;;;;;;;17.23;65.81;99691.38;131158;1255;106026;-76
2023/08/08 06:17:56;;;;;;;3.60;1.70;;;;;;;17.25;65.78;99695.24;131181;1251;106541;-75
2023/08/08 06:21:02;;;;;;;3.10;1.60;;;;;;;17.25;65.46;99705.45;131211;1253;106618;-75
2023/08/08 06:24:08;;;;;;;4.50;1.80;;;;;;;17.31;65.43;99703.02;131208;1253;105713;-75
2023/08/08 06:27:15;;;;;;;3.10;1.70;;;;;;;17.38;64.94;99705.58;131127;1253;107516;-75
2023/08/08 06:30:21;;;;;;;5.90;1.90;;;;;;;17.40;64.80;99697.86;131111;1253;108122;-75
2023/08/08 06:33:26;;;;;;;4.30;1.70;;;;;;;17.52;64.60;99693.88;131181;1257;107722;-75
2023/08/08 06:36:32;;;;;;;3.20;1.70;;;;;;;17.64;64.17;99695.39;131074;1257;106031;-75
2023/08/08 06:39:38;;;;;;;2.30;1.60;;;;;;;17.67;63.94;99697.19;131099;1253;107506;-75
2023/08/08 06:42:44;;;;;;;3.10;1.60;;;;;;;17.80;64.61;99699.56;131017;1255;107544;-76
2023/08/08 06:45:49;;;;;;;4.50;1.70;;;;;;;17.90;63.89;99694.35;131016;1256;107227;-75
2023/08/08 06:48:58;;;;;;;3.60;1.60;;;;;;;17.94;63.63;99697.38;131038;1251;107552;-76
2023/08/08 06:52:05;;;;;;;3.20;1.40;;;;;;;17.91;63.20;99700.88;130997;1260;107550;-76
2023/08/08 06:55:12;;;;;;;2.70;1.80;;;;;;;17.87;63.26;99709.61;130983;1250;106802;-75
2023/08/08 06:58:18;;;;;;;3.70;1.70;;;;;;;17.79;62.56;99708.11;131113;1253;107038;-75
2023/08/08 07:01:23;;;;;;;2.60;1.80;;;;;;;17.80;63.44;99708.86;131017;1253;107355;-75
2023/08/08 07:04:29;;;;;;;2.60;1.60;;;;;;;17.92;63.33;99714.95;131159;1257;107532;-75
2023/08/08 07:07:35;;;;;;;4.30;1.70;;;;;;;17.90;62.76;99713.87;130967;1253;108389;-76
2023/08/08 07:10:41;;;;;;;3.00;1.50;;;;;;;17.86;62.80;99715.97;131153;1250;107501;-76
2023/08/08 07:13:46;;;;;;;5.70;1.90;;;;;;;17.83;61.90;99718.95;131044;1253;107529;-76
2023/08/08 07:16:53;;;;;;;3.80;1.80;;;;;;;17.74;62.00;99714.15;131256;1253;107335;-74
2023/08/08 07:19:59;;;;;;;2.10;1.70;;;;;;;17.81;62.39;99718.57;131143;1254;107340;-76
2023/08/08 07:23:05;;;;;;;2.50;1.60;;;;;;;17.88;61.73;99709.19;131076;1253;107524;-75
2023/08/08 07:26:10;;;;;;;4.10;1.50;;;;;;;18.04;62.03;99706.95;131062;1256;107554;-74
2023/08/08 07:29:16;;;;;;;3.30;1.40;;;;;;;18.24;61.83;99703.48;131109;1250;107501;-74
2023/08/08 07:32:22;;;;;;;3.00;1.50;;;;;;;18.41;61.60;99703.48;131083;1253;107635;-75
2023/08/08 07:35:27;;;;;;;3.40;1.40;;;;;;;18.61;61.37;99706.14;131023;1256;108861;-74
2023/08/08 07:38:34;;;;;;;4.70;1.70;;;;;;;18.82;60.88;99705.47;131072;1250;106557;-74
2023/08/08 07:41:40;;;;;;;5.30;1.60;;;;;;;19.00;60.95;99704.57;131044;1253;107350;-75
2023/08/08 07:44:45;;;;;;;3.40;1.40;;;;;;;19.20;60.84;99706.96;131015;1263;107497;-74
2023/08/08 07:47:51;;;;;;;2.40;1.50;;;;;;;19.36;60.15;99708.59;131099;1256;107520;-74
2023/08/08 07:50:56;;;;;;;4.40;1.60;;;;;;;19.39;59.53;99717.42;131096;1254;108655;-74
2023/08/08 07:54:02;;;;;;;3.00;1.40;;;;;;;19.42;59.18;99710.70;131172;1253;107836;-74
2023/08/08 07:57:08;;;;;;;3.30;1.50;;;;;;;19.51;59.19;99712.96;131093;1257;107664;-75
2023/08/08 08:00:18;;;;;;;2.50;1.30;;;;;;;19.58;59.30;99715.39;130946;1256;108907;-75
2023/08/08 08:03:26;;;;;;;4.00;1.50;;;;;;;19.67;57.97;99718.08;131311;1250;107551;-76
2023/08/08 08:06:32;;;;;;;3.90;1.40;;;;;;;19.63;57.97;99714.05;131090;1251;107174;-74
2023/08/08 08:09:38;;;;;;;4.50;1.40;;;;;;;19.72;58.43;99711.09;131071;1256;108239;-74
2023/08/08 08:12:44;;;;;;;4.30;1.30;;;;;;;19.87;58.54;99714.45;131048;1253;108155;-75
2023/08/08 08:15:50;;;;;;;3.80;1.40;;;;;;;19.92;56.89;99713.06;131061;1251;107818;-75
2023/08/08 08:18:55;;;;;;;3.80;1.30;;;;;;;19.89;57.42;99716.30;131077;1250;107338;-75
2023/08/08 08:22:01;;;;;;;3.20;1.40;;;;;;;19.94;57.48;99708.21;131037;1256;107928;-74
2023/08/08 08:25:09;;;;;;;2.20;1.20;;;;;;;20.01;57.43;99711.83;130951;1251;107518;-75
2023/08/08 08:28:15;;;;;;;3.20;1.30;;;;;;;20.07;57.05;99708.66;131047;1256;107261;-75
2023/08/08 08:31:20;;;;;;;3.40;1.60;;;;;;;20.08;57.04;99712.07;131029;1251;107522;-75
2023/08/08 08:34:26;;;;;;;3.50;1.70;;;;;;;20.15;56.91;99706.02;131131;1253;107530;-74
2023/08/08 08:37:31;;;;;;;2.60;1.30;;;;;;;20.32;56.79;99711.19;131180;1253;107556;-76
2023/08/08 08:40:41;;;;;;;1.90;1.00;;;;;;;20.44;55.96;99703.81;131143;1249;107523;-75
2023/08/08 08:43:47;;;;;;;2.30;1.30;;;;;;;20.55;55.41;99705.61;131108;1250;105770;-76
2023/08/08 08:46:55;;;;;;;1.40;1.00;;;;;;;20.73;55.58;99703.09;131051;1251;107233;-75
2023/08/08 08:50:04;;;;;;;2.30;1.00;;;;;;;20.91;55.05;99699.67;131156;1250;106725;-75
2023/08/08 08:53:10;;;;;;;3.50;1.20;;;;;;;20.86;54.17;99699.23;131105;1253;107457;-74
2023/08/08 08:56:19;;;;;;;4.60;1.20;;;;;;;20.67;53.85;99709.86;131148;1253;107527;-75
2023/08/08 08:59:25;;;;;;;3.80;1.10;;;;;;;20.50;54.11;99713.81;131208;1253;109658;-75
2023/08/08 09:02:30;;;;;;;1.40;0.80;;;;;;;20.21;53.24;99708.97;131255;1256;107602;-75
2023/08/08 09:05:41;;;;;;;2.40;0.90;;;;;;;20.01;54.14;99713.16;131515;1250;107296;-76
2023/08/08 09:08:48;;;;;;;2.60;1.00;;;;;;;20.06;53.78;99719.14;131346;1254;107921;-75
2023/08/08 09:11:56;;;;;;;3.60;1.10;;;;;;;20.14;53.52;99719.60;131138;1256;108070;-76
2023/08/08 09:15:04;;;;;;;2.60;1.00;;;;;;;20.14;53.23;99712.11;131192;1257;107560;-76
2023/08/08 09:18:09;;;;;;;1.70;1.20;;;;;;;19.97;52.63;99720.05;131121;1255;107455;-75
2023/08/08 09:21:15;;;;;;;2.70;1.10;;;;;;;19.75;52.60;99725.27;131029;1255;107521;-75
2023/08/08 09:24:21;;;;;;;2.20;1.00;;;;;;;19.87;53.06;99728.11;131169;1255;105796;-75
2023/08/08 09:27:29;;;;;;;2.30;1.20;;;;;;;20.13;52.29;99729.26;130977;1254;107530;-75
2023/08/08 09:30:35;;;;;;;1.60;0.90;;;;;;;20.26;52.57;99727.08;131044;1256;107296;-75
2023/08/08 09:33:45;;;;;;;5.80;1.00;;;;;;;20.35;51.41;99726.45;130994;1257;107528;-76
2023/08/08 09:36:52;;;;;;;1.40;0.90;;;;;;;20.39;51.17;99718.96;130982;1257;107571;-76
2023/08/08 09:40:03;;;;;;;1.60;0.90;;;;;;;20.50;50.91;99718.53;131015;1257;107346;-75
2023/08/08 09:43:09;;;;;;;3.90;1.00;;;;;;;20.49;50.37;99718.96;130999;1254;107417;-76
2023/08/08 09:46:15;;;;;;;3.10;0.90;;;;;;;20.57;49.37;99724.80;130946;1256;107421;-76
2023/08/08 09:49:22;;;;;;;2.40;0.90;;;;;;;20.65;49.65;99724.38;131083;1257;107505;-76
2023/08/08 09:52:29;;;;;;;0.90;0.70;;;;;;;20.82;49.57;99727.36;130996;1263;107502;-76
2023/08/08 09:55:36;;;;;;;1.50;0.70;;;;;;;20.83;49.28;99729.81;130980;1250;107636;-77
2023/08/08 09:58:42;;;;;;;2.10;0.80;;;;;;;20.73;49.51;99733.54;131077;1254;107492;-77
2023/08/08 10:01:49;;;;;;;2.40;0.80;;;;;;;20.61;48.93;99731.30;131198;1253;107378;-75
2023/08/08 10:04:58;;;;;;;1.20;0.80;;;;;;;20.46;48.44;99733.22;131143;1253;108137;-75
2023/08/08 10:08:03;;;;;;;3.50;0.80;;;;;;;20.34;48.90;99734.27;131258;1261;106278;-76
2023/08/08 10:11:10;;;;;;;1.90;0.70;;;;;;;20.47;49.13;99733.11;131191;1253;105630;-76
2023/08/08 10:14:15;;;;;;;5.20;0.90;;;;;;;20.76;49.04;99729.15;131260;1253;107861;-76
2023/08/08 10:17:21;;;;;;;1.40;0.70;;;;;;;20.97;49.01;99722.73;131077;1250;107251;-75
2023/08/08 10:20:28;;;;;;;1.50;0.90;;;;;;;20.97;48.14;99730.58;131136;1263;107512;-75
2023/08/08 10:23:40;;;;;;;1.10;0.80;;;;;;;20.85;47.40;99723.80;131142;1263;108763;-75
2023/08/08 10:26:59;;;;;;;1.50;0.80;;;;;;;21.05;48.45;99720.47;131134;1256;108553;-75
2023/08/08 10:30:09;;;;;;;1.60;0.60;;;;;;;21.34;47.79;99717.61;131181;1256;107505;-76
2023/08/08 10:33:22;;;;;;;1.00;0.70;;;;;;;21.32;47.74;99721.03;131253;1253;107516;-76
2023/08/08 10:36:43;;;;;;;1.70;0.80;;;;;;;21.20;46.85;99727.04;131151;1261;108043;-76
2023/08/08 10:39:58;;;;;;;2.00;0.90;;;;;;;21.03;46.62;99728.56;131125;1254;106925;-78
2023/08/08 10:43:12;;;;;;;1.10;0.60;;;;;;;20.99;47.43;99729.88;131033;1251;108180;-77
2023/08/08 10:46:26;;;;;;;1.20;0.60;;;;;;;21.06;47.27;99730.63;131097;1257;108429;-77
2023/08/08 10:49:31;;;;;;;2.80;0.80;;;;;;;21.28;47.15;99726.48;131100;1255;108106;-78
2023/08/08 10:52:51;;;;;;;0.60;0.50;;;;;;;21.35;46.71;99724.52;131113;1251;108129;-76
2023/08/08 10:56:04;;;;;;;2.20;0.70;;;;;;;21.29;45.95;99729.44;131012;1264;108981;-76
2023/08/08 10:59:18;;;;;;;1.00;0.70;;;;;;;21.27;46.62;99727.55;131087;1253;107590;-76
2023/08/08 11:02:24;;;;;;;2.90;0.80;;;;;;;21.40;45.94;99725.06;131097;1253;107569;-76
2023/08/08 11:05:33;;;;;;;2.90;0.80;;;;;;;21.48;46.37;99726.14;131144;1256;107647;-77
2023/08/08 11:08:39;;;;;;;2.90;0.80;;;;;;;21.59;45.91;99720.95;131066;1256;107684;-76
2023/08/08 11:11:46;;;;;;;2.60;0.80;;;;;;;21.55;46.17;99723.42;130979;1257;107270;-76
2023/08/08 11:14:52;;;;;;;1.50;0.80;;;;;;;21.47;45.23;99730.52;131083;1256;107523;-76
2023/08/08 11:17:59;;;;;;;1.20;0.70;;;;;;;21.53;45.26;99735.91;130977;1257;108115;-76
2023/08/08 11:21:12;;;;;;;1.40;0.80;;;;;;;21.79;45.87;99730.65;131147;1263;105732;-76
2023/08/08 11:24:18;;;;;;;1.20;0.60;;;;;;;21.99;44.56;99725.67;131070;1256;107735;-76
2023/08/08 11:27:24;;;;;;;1.40;0.80;;;;;;;21.86;45.33;99733.25;131096;1251;106153;-76
2023/08/08 11:30:34;;;;;;;1.70;0.70;;;;;;;21.81;45.26;99731.73;131029;1257;107230;-76
2023/08/08 11:33:40;;;;;;;1.10;0.80;;;;;;;21.95;45.23;99739.95;131128;1261;108125;-76
2023/08/08 11:36:47;;;;;;;0.70;0.70;;;;;;;22.09;44.63;99728.11;131238;1253;108580;-76
2023/08/08 11:39:52;;;;;;;2.20;0.80;;;;;;;22.27;45.16;99719.95;131141;1253;107476;-75
2023/08/08 11:42:59;;;;;;;1.60;0.90;;;;;;;22.53;45.09;99721.90;131246;1254;107556;-76
2023/08/08 11:46:05;;;;;;;1.20;0.80;;;;;;;22.54;43.97;99726.96;131261;1263;105700;-78
2023/08/08 11:49:11;;;;;;;1.00;0.80;;;;;;;22.34;43.73;99725.08;131227;1263;106626;-77
2023/08/08 11:52:18;;;;;;;1.60;0.80;;;;;;;22.14;43.95;99728.53;131106;1251;107602;-76
2023/08/08 11:55:30;;;;;;;2.00;1.00;;;;;;;22.02;44.16;99733.68;131189;1257;105808;-78
2023/08/08 11:58:36;;;;;;;3.40;1.00;;;;;;;21.83;43.92;99740.59;131142;1253;107358;-77
2023/08/08 12:01:44;;;;;;;2.10;1.00;;;;;;;21.71;44.16;99741.80;131172;1250;107247;-78
2023/08/08 12:04:50;;;;;;;1.10;0.80;;;;;;;21.64;44.17;99742.68;131137;1255;107662;-78
2023/08/08 12:07:55;;;;;;;1.40;0.90;;;;;;;21.67;44.40;99737.41;131098;1251;107221;-76
2023/08/08 12:11:04;;;;;;;1.50;0.90;;;;;;;21.71;43.58;99739.83;131066;1254;108661;-76
2023/08/08 12:14:13;;;;;;;1.10;0.90;;;;;;;21.74;44.20;99742.45;131118;1254;108553;-76
2023/08/08 12:17:19;;;;;;;2.90;0.90;;;;;;;21.83;44.20;99743.89;131183;1256;106234;-76
2023/08/08 12:20:27;;;;;;;2.20;1.00;;;;;;;21.90;44.44;99743.98;131060;1255;107277;-76
2023/08/08 12:23:34;;;;;;;1.90;0.90;;;;;;;21.96;44.29;99747.69;131047;1257;107239;-76
2023/08/08 12:26:39;;;;;;;1.30;1.00;;;;;;;21.80;43.31;99746.88;131028;1257;107406;-77
2023/08/08 12:29:45;;;;;;;3.40;0.90;;;;;;;21.71;43.60;99743.53;130986;1256;108703;-77
2023/08/08 12:32:51;;;;;;;2.80;0.80;;;;;;;21.78;43.60;99744.70;131045;1251;107584;-78
2023/08/08 12:35:56;;;;;;;1.80;0.70;;;;;;;21.78;42.85;99742.75;131062;1258;106987;-77
2023/08/08 12:39:02;;;;;;;1.00;0.60;;;;;;;21.76;42.75;99749.75;131000;1263;107459;-77
2023/08/08 12:42:08;;;;;;;1.40;0.60;;;;;;;21.73;42.79;99750.54;131026;1258;107496;-77
2023/08/08 12:45:14;;;;;;;3.00;0.80;;;;;;;21.75;42.82;99754.63;131027;1264;108423;-77
2023/08/08 12:48:19;;;;;;;4.00;0.80;;;;;;;21.67;42.19;99760.92;131014;1254;107515;-76
2023/08/08 12:51:25;;;;;;;1.10;0.70;;;;;;;21.56;42.04;99761.11;131129;1253;109633;-76
2023/08/08 12:54:30;;;;;;;1.30;1.00;;;;;;;21.55;42.88;99763.44;131043;1255;108680;-77
2023/08/08 12:57:36;;;;;;;1.50;0.70;;;;;;;21.52;41.55;99767.45;131082;1257;107510;-76
2023/08/08 13:00:41;;;;;;;1.50;0.70;;;;;;;21.47;42.21;99763.52;131108;1253;107074;-76
2023/08/08 13:03:47;;;;;;;1.90;0.80;;;;;;;21.51;41.40;99761.67;131048;1257;107584;-77
2023/08/08 13:06:53;;;;;;;1.30;0.90;;;;;;;21.58;42.46;99757.79;131134;1260;106539;-76
2023/08/08 13:09:59;;;;;;;3.50;1.00;;;;;;;21.81;42.39;99753.58;131022;1263;109647;-76
2023/08/08 13:13:05;;;;;;;2.20;0.90;;;;;;;21.89;40.73;99747.48;131107;1257;107948;-76
2023/08/08 13:16:11;;;;;;;1.90;0.80;;;;;;;21.79;41.66;99753.36;131029;1264;107801;-77
2023/08/08 13:19:19;;;;;;;1.90;0.80;;;;;;;21.92;42.04;99751.58;131000;1253;106520;-77
2023/08/08 13:22:25;;;;;;;2.00;0.90;;;;;;;22.06;42.09;99750.61;131015;1253;107449;-76
2023/08/08 13:25:34;;;;;;;1.70;0.80;;;;;;;22.20;42.41;99746.48;130994;1251;108430;-77
2023/08/08 13:28:39;;;;;;;2.00;0.80;;;;;;;22.38;42.67;99748.48;131007;1254;107457;-78
2023/08/08 13:31:45;;;;;;;2.30;0.80;;;;;;;22.44;42.39;99749.73;131108;1263;108995;-76
2023/08/08 13:34:50;;;;;;;1.30;0.70;;;;;;;22.31;42.04;99747.81;131068;1256;107634;-77
2023/08/08 13:37:56;;;;;;;0.70;0.50;;;;;;;22.15;42.04;99755.23;131062;1251;108681;-77
2023/08/08 13:41:03;;;;;;;1.60;0.90;;;;;;;22.12;42.16;99756.00;131117;1254;107456;-77
2023/08/08 13:44:09;;;;;;;1.50;0.70;;;;;;;22.07;41.79;99753.02;131072;1254;108619;-78
2023/08/08 13:47:14;;;;;;;2.60;0.70;;;;;;;21.99;41.61;99747.96;131050;1254;107588;-76
2023/08/08 13:50:20;;;;;;;1.10;0.60;;;;;;;22.00;41.72;99745.09;131047;1251;107002;-78
2023/08/08 13:53:26;;;;;;;2.40;0.80;;;;;;;21.96;41.93;99745.30;131063;1254;107380;-76
2023/08/08 13:56:32;;;;;;;1.50;0.80;;;;;;;21.95;41.63;99745.56;131080;1262;105891;-76
2023/08/08 13:59:37;;;;;;;3.20;0.80;;;;;;;21.97;41.82;99744.36;130975;1263;107341;-77
2023/08/08 14:02:43;;;;;;;1.10;0.70;;;;;;;22.05;41.60;99750.90;131167;1254;107542;-78
2023/08/08 14:05:48;;;;;;;1.20;0.70;;;;;;;22.08;41.79;99743.91;131429;1254;107402;-77
2023/08/08 14:08:54;;;;;;;0.70;0.60;;;;;;;22.09;41.64;99741.27;131129;1257;107492;-76
2023/08/08 14:11:59;;;;;;;1.40;0.80;;;;;;;22.07;41.69;99743.44;131112;1256;107639;-76
2023/08/08 14:15:06;;;;;;;1.10;1.00;;;;;;;22.07;41.81;99744.32;131027;1253;105755;-76
2023/08/08 14:18:12;;;;;;;1.10;0.80;;;;;;;22.10;41.96;99742.04;131047;1263;106004;-76